地図

経路データ

SID SEASON NUMBER BASIN SUBBASIN NAME ISO_TIME NATURE LAT LON WMO_WIND WMO_PRES WMO_AGENCY TRACK_TYPE DIST2LAND LANDFALL IFLAG USA_AGENCY USA_ATCF_ID USA_LAT USA_LON USA_RECORD USA_STATUS USA_WIND USA_PRES USA_SSHS USA_R34_NE USA_R34_SE USA_R34_SW USA_R34_NW USA_R50_NE USA_R50_SE USA_R50_SW USA_R50_NW USA_R64_NE USA_R64_SE USA_R64_SW USA_R64_NW USA_POCI USA_ROCI USA_RMW USA_EYE TOKYO_LAT TOKYO_LON TOKYO_GRADE TOKYO_WIND TOKYO_PRES TOKYO_R50_DIR TOKYO_R50_LONG TOKYO_R50_SHORT TOKYO_R30_DIR TOKYO_R30_LONG TOKYO_R30_SHORT TOKYO_LAND CMA_LAT CMA_LON CMA_CAT CMA_WIND CMA_PRES HKO_LAT HKO_LON HKO_CAT HKO_WIND HKO_PRES NEWDELHI_LAT NEWDELHI_LON NEWDELHI_GRADE NEWDELHI_WIND NEWDELHI_PRES NEWDELHI_CI NEWDELHI_DP NEWDELHI_POCI REUNION_LAT REUNION_LON REUNION_TYPE REUNION_WIND REUNION_PRES REUNION_TNUM REUNION_CI REUNION_RMW REUNION_R34_NE REUNION_R34_SE REUNION_R34_SW REUNION_R34_NW REUNION_R50_NE REUNION_R50_SE REUNION_R50_SW REUNION_R50_NW REUNION_R64_NE REUNION_R64_SE REUNION_R64_SW REUNION_R64_NW BOM_LAT BOM_LON BOM_TYPE BOM_WIND BOM_PRES BOM_TNUM BOM_CI BOM_RMW BOM_R34_NE BOM_R34_SE BOM_R34_SW BOM_R34_NW BOM_R50_NE BOM_R50_SE BOM_R50_SW BOM_R50_NW BOM_R64_NE BOM_R64_SE BOM_R64_SW BOM_R64_NW BOM_ROCI BOM_POCI BOM_EYE BOM_POS_METHOD BOM_PRES_METHOD NADI_LAT NADI_LON NADI_CAT NADI_WIND NADI_PRES WELLINGTON_LAT WELLINGTON_LON WELLINGTON_WIND WELLINGTON_PRES DS824_LAT DS824_LON DS824_STAGE DS824_WIND DS824_PRES TD9636_LAT TD9636_LON TD9636_STAGE TD9636_WIND TD9636_PRES TD9635_LAT TD9635_LON TD9635_WIND TD9635_PRES TD9635_ROCI NEUMANN_LAT NEUMANN_LON NEUMANN_CLASS NEUMANN_WIND NEUMANN_PRES MLC_LAT MLC_LON MLC_CLASS MLC_WIND MLC_PRES USA_GUST BOM_GUST BOM_GUST_PER REUNION_GUST REUNION_GUST_PER USA_SEAHGT USA_SEARAD_NE USA_SEARAD_SE USA_SEARAD_SW USA_SEARAD_NW STORM_SPEED STORM_DIR
1908282N14129 1908 44 WP MM NOT_NAMED 1908-10-07 16:00:00 NR 14.4000 128.500 main 407 365 __________O___ -1 14.4000 128.500 7 22 286
1908282N14129 1908 44 WP MM NOT_NAMED 1908-10-07 18:00:00 NR 14.5993 127.777 main 365 271 __________P___ -1 14.5993 127.777 7 21 286
1908282N14129 1908 44 WP MM NOT_NAMED 1908-10-07 21:00:00 NR 14.8900 126.725 main 271 209 __________P___ -1 14.8900 126.725 7 20 286
1908282N14129 1908 44 WP MM NOT_NAMED 1908-10-08 00:00:00 NR 15.1654 125.759 main 209 169 __________P___ -1 15.1654 125.759 7 18 287
1908282N14129 1908 44 WP MM NOT_NAMED 1908-10-08 03:00:00 NR 15.4203 124.934 main 169 169 __________P___ -1 15.4203 124.934 7 16 288
1908282N14129 1908 44 WP MM NOT_NAMED 1908-10-08 04:00:00 NR 15.5000 124.700 main 173 170 __________O___ -1 15.5000 124.700 7 13 291
1908282N14129 1908 44 WP MM NOT_NAMED 1908-10-08 06:00:00 NR 15.6510 124.298 main 190 174 __________P___ -1 15.6510 124.298 7 11 293
1908282N14129 1908 44 WP MM NOT_NAMED 1908-10-08 09:00:00 NR 15.8604 123.822 main 174 128 __________P___ -1 15.8604 123.822 7 9 296
1908282N14129 1908 44 WP MM NOT_NAMED 1908-10-08 12:00:00 NR 16.0547 123.430 main 128 85 __________P___ -1 16.0547 123.430 7 8 297
1908282N14129 1908 44 WP MM NOT_NAMED 1908-10-08 15:00:00 NR 16.2396 123.042 main 85 72 __________P___ -1 16.2396 123.042 7 8 296
1908282N14129 1908 44 WP MM NOT_NAMED 1908-10-08 16:00:00 NR 16.3000 122.900 main 72 39 __________O___ -1 16.3000 122.900 3 10 290
1908282N14129 1908 44 WP MM NOT_NAMED 1908-10-08 18:00:00 NR 16.4060 122.571 main 39 0 __________P___ -1 16.4060 122.571 3 10 288
1908282N14129 1908 44 WP MM NOT_NAMED 1908-10-08 21:00:00 NR 16.5586 122.046 main 0 0 __________P___ -1 16.5586 122.046 3 11 287
1908282N14129 1908 44 WP MM NOT_NAMED 1908-10-09 00:00:00 NR 16.7232 121.471 main 0 0 __________P___ -1 16.7232 121.471 3 12 287
1908282N14129 1908 44 WP MM NOT_NAMED 1908-10-09 03:00:00 NR 16.9222 120.831 main 0 0 __________P___ -1 16.9222 120.831 3 13 288
1908282N14129 1908 44 WP MM NOT_NAMED 1908-10-09 04:00:00 NR 17.0000 120.600 main 0 0 __________O___ -1 17.0000 120.600 4 15 291
1908282N14129 1908 44 WP MM NOT_NAMED 1908-10-09 06:00:00 NR 17.1828 120.102 main 31 31 __________P___ -1 17.1828 120.102 4 16 292
1908282N14129 1908 44 WP MM NOT_NAMED 1908-10-09 09:00:00 NR 17.4946 119.292 main 106 117 __________P___ -1 17.4946 119.292 4 17 292
1908282N14129 1908 44 WP MM NOT_NAMED 1908-10-09 12:00:00 NR 17.8346 118.439 main 202 204 __________P___ -1 17.8346 118.439 4 18 293
1908282N14129 1908 44 WP MM NOT_NAMED 1908-10-09 15:00:00 NR 18.1844 117.581 main 293 303 __________P___ -1 18.1844 117.581 4 18 293
1908282N14129 1908 44 WP MM NOT_NAMED 1908-10-09 16:00:00 NR 18.3000 117.300 main 326 326 __________O___ -1 18.3000 117.300 4 18 294
1908282N14129 1908 44 WP MM NOT_NAMED 1908-10-09 18:00:00 NR 18.5351 116.733 main 393 396 __________P___ -1 18.5351 116.733 4 18 294
1908282N14129 1908 44 WP MM NOT_NAMED 1908-10-09 21:00:00 NR 18.8885 115.894 main 415 356 __________P___ -1 18.8885 115.894 4 17 294
1908282N14129 1908 44 WP MM NOT_NAMED 1908-10-10 00:00:00 NR 19.2226 115.105 main 356 305 __________P___ -1 19.2226 115.105 4 15 294
1908282N14129 1908 44 WP MM NOT_NAMED 1908-10-10 03:00:00 NR 19.5154 114.406 main 305 285 __________P___ -1 19.5154 114.406 4 14 294
1908282N14129 1908 44 WP MM NOT_NAMED 1908-10-10 04:00:00 NR 19.6000 114.200 main 285 259 __________O___ -1 19.6000 114.200 4 12 293
1908282N14129 1908 44 WP MM NOT_NAMED 1908-10-10 06:00:00 NR 19.7359 113.841 main 259 227 __________P___ -1 19.7359 113.841 4 10 291
1908282N14129 1908 44 WP MM NOT_NAMED 1908-10-10 09:00:00 NR 19.8969 113.399 main 227 203 __________P___ -1 19.8969 113.399 4 8 291
1908282N14129 1908 44 WP MM NOT_NAMED 1908-10-10 12:00:00 NR 20.0284 113.034 main 203 172 __________P___ -1 20.0284 113.034 4 7 292
1908282N14129 1908 44 WP MM NOT_NAMED 1908-10-10 15:00:00 NR 20.1548 112.708 main 172 170 __________P___ -1 20.1548 112.708 4 7 293
1908282N14129 1908 44 WP MM NOT_NAMED 1908-10-10 16:00:00 NR 20.2000 112.600 main 170 156 __________O___ -1 20.2000 112.600 4 7 295
1908282N14129 1908 44 WP MM NOT_NAMED 1908-10-10 18:00:00 NR 20.2987 112.379 main 156 119 __________P___ -1 20.2987 112.379 4 7 297
1908282N14129 1908 44 WP MM NOT_NAMED 1908-10-10 21:00:00 NR 20.4648 112.036 main 119 98 __________P___ -1 20.4648 112.036 4 7 298
1908282N14129 1908 44 WP MM NOT_NAMED 1908-10-11 00:00:00 NR 20.6462 111.682 main 98 67 __________P___ -1 20.6462 111.682 4 8 299
1908282N14129 1908 44 WP MM NOT_NAMED 1908-10-11 03:00:00 NR 20.8361 111.321 main 67 55 __________P___ -1 20.8361 111.321 4 8 299
1908282N14129 1908 44 WP MM NOT_NAMED 1908-10-11 04:00:00 NR 20.9000 111.200 main 56 __________O___ -1 20.9000 111.200 7 8 299

デジタル台風データ・検索

IBTrACS Databaseについて

本データベースは、米国NOAAが公開する1842年以降の世界の熱帯低気圧のベストトラックデータアーカイブInternational Best Track Archive for Climate Stewardship (IBTrACS)を、ウェブで閲覧しやすい形式に変換したものです。

最終更新日:2021-10-25